SKVP/VUP METAR and TAF weather

Enter ICAO airport designator
Station Type Date Time Source
SKVP METAR 2021/04/12 14:00 UTC NOAA

SKVP 121400Z 07006KT 9999 FEW015 BKN200 30/23 Q1011 RMK A2987


Station Type Date Time Source
SKVP Decoded METAR 2021/04/12 14:00 UTC NOAA

Valledupar / Alfonso Lopez, Colombia (SKVP) 10-26N 073-15W
Apr 12, 2021 - 10:00 AM EDT / 2021.04.12 1400 UTC
Wind: from the ENE (070 degrees) at 7 MPH (6 KT):0
Visibility: greater than 7 mile(s):0
Sky conditions: mostly cloudy
Temperature: 86 F (30 C)
Heat index: 93.4 F (34.1 C):1
Dew Point: 73 F (23 C)
Relative Humidity: 66%
Pressure (altimeter): 29.85 in. Hg (1011 hPa)
ob: SKVP 121400Z 07006KT 9999 FEW015 BKN200 30/23 Q1011 RMK A2987
cycle: 14

Station Type Date Time Source
SKVP TAF UTC NOAA

Error!

Example: see airport list